Time;durP1;ratioP1;P1;durP2;ratioP2;P2;SDS_P1;SDS_P2;PMS_P1;PMS_P2;Temp;Humidity;BMP_temperature;BMP_pressure;BME280_temperature;BME280_humidity;BME280_pressure;Samples;Min_cycle;Max_cycle;Signal;HPM_P1;HPM_P2
2021/08/13 00:01:53;;;;;;;17.63;7.75;;;614.90;1817.60;;;;;;5152309;27;20042;-79
2021/08/13 00:04:19;;;;;;;12.15;7.50;;;615.20;1792.00;;;;;;5152851;27;20015;-81
2021/08/13 00:06:45;;;;;;;17.20;8.35;;;615.10;1792.00;;;;;;5153745;27;20031;-79
2021/08/13 00:09:10;;;;;;;13.60;8.40;;;614.80;1817.60;;;;;;5153347;27;20467;-81
2021/08/13 00:11:40;;;;;;;15.88;6.82;;;614.60;1868.80;;;;;;5153068;27;20480;-77
2021/08/13 00:14:07;;;;;;;15.77;7.38;;;614.40;1868.80;;;;;;5153739;27;20031;-77
2021/08/13 00:16:34;;;;;;;13.63;6.97;;;589.70;1894.40;;;;;;5135230;27;20532;-81
2021/08/13 00:19:03;;;;;;;13.00;7.32;;;589.70;1894.40;;;;;;5151858;27;20459;-82
2021/08/13 00:21:29;;;;;;;12.85;7.03;;;589.70;1894.40;;;;;;5155082;27;20033;-81
2021/08/13 00:23:56;;;;;;;10.77;6.95;;;589.40;1894.40;;;;;;5131546;28;20430;-79
2021/08/13 00:26:22;;;;;;;16.90;6.90;;;589.50;1894.40;;;;;;5130450;28;20460;-79
2021/08/13 00:28:48;;;;;;;14.35;6.65;;;589.30;1894.40;;;;;;5133643;28;20486;-80
2021/08/13 00:31:14;;;;;;;14.52;6.97;;;589.30;1894.40;;;;;;5133538;28;20098;-81
2021/08/13 00:33:40;;;;;;;11.38;6.88;;;589.20;1894.40;;;;;;5130023;28;20107;-77
2021/08/13 00:36:06;;;;;;;15.70;7.28;;;589.10;1920.00;;;;;;5128591;28;20413;-80
2021/08/13 00:38:32;;;;;;;11.77;6.75;;;589.10;1920.00;;;;;;5130328;28;20012;-80
2021/08/13 00:40:58;;;;;;;13.25;6.88;;;588.90;1945.60;;;;;;5127644;28;20023;-79
2021/08/13 00:43:23;;;;;;;15.52;6.32;;;588.80;1971.20;;;;;;5124379;28;20416;-80
2021/08/13 00:45:49;;;;;;;11.30;6.20;;;588.80;1971.20;;;;;;5129994;28;20026;-78
2021/08/13 00:48:15;;;;;;;15.55;6.55;;;564.00;1971.20;;;;;;5130193;28;20031;-78
2021/08/13 00:50:41;;;;;;;13.85;7.43;;;564.00;1971.20;;;;;;5130288;28;20095;-79
2021/08/13 00:53:08;;;;;;;15.25;6.75;;;564.10;1971.20;;;;;;5131310;27;20015;-78
2021/08/13 00:55:34;;;;;;;10.98;6.78;;;564.10;1945.60;;;;;;5128595;27;20007;-80
2021/08/13 00:58:01;;;;;;;11.70;6.38;;;564.00;1945.60;;;;;;5134111;27;20077;-80
2021/08/13 01:00:27;;;;;;;15.38;7.22;;;564.00;1971.20;;;;;;5133865;27;20018;-79
2021/08/13 01:02:52;;;;;;;15.38;6.93;;;563.90;1996.80;;;;;;5130962;27;20031;-78
2021/08/13 01:05:18;;;;;;;11.57;6.72;;;563.90;1996.80;;;;;;5133846;27;20011;-79
2021/08/13 01:07:44;;;;;;;12.48;6.75;;;563.80;1996.80;;;;;;5114110;27;20066;-79
2021/08/13 01:10:12;;;;;;;13.65;6.85;;;563.70;2022.40;;;;;;5134621;27;20011;-82
2021/08/13 01:12:56;;;;;;;11.13;6.60;;;563.70;2022.40;;;;;;5136753;27;20018;-82
2021/08/13 01:15:22;;;;;;;11.45;6.85;;;563.70;2022.40;;;;;;5131401;27;20110;-83
2021/08/13 01:17:58;;;;;;;10.57;6.72;;;563.90;2022.40;;;;;;5133695;27;20555;-81
2021/08/13 01:21:01;;;;;;;10.65;5.75;;;563.70;2022.40;;;;;;5129086;27;20019;-82
2021/08/13 01:23:37;;;;;;;11.95;5.95;;;563.60;2048.00;;;;;;5129301;27;20563;-82
2021/08/13 01:26:04;;;;;;;;;;;563.50;2048.00;;;;;;5131585;27;20023;-84
2021/08/13 01:28:48;;;;;;;10.43;5.47;;;563.40;2048.00;;;;;;5116639;27;20356;-75
2021/08/13 01:31:20;;;;;;;14.57;5.85;;;563.40;2048.00;;;;;;5126225;27;20012;-80
2021/08/13 01:33:51;;;;;;;11.07;5.97;;;563.40;2048.00;;;;;;5128888;27;20027;-80
2021/08/13 01:36:18;;;;;;;10.57;6.60;;;563.20;2073.60;;;;;;5131861;27;20739;-83
2021/08/13 01:38:44;;;;;;;10.73;6.47;;;538.40;2022.40;;;;;;5113467;27;20019;-82
2021/08/13 01:41:13;;;;;;;13.50;6.15;;;563.50;2048.00;;;;;;5132863;27;20065;-80
2021/08/13 01:43:39;;;;;;;9.25;5.70;;;563.80;1996.80;;;;;;5127824;27;20031;-80
2021/08/13 01:46:06;;;;;;;13.15;6.28;;;563.60;2022.40;;;;;;5127746;27;20026;-77
2021/08/13 01:48:34;;;;;;;13.05;6.40;;;563.60;2022.40;;;;;;5130373;27;20019;-81
2021/08/13 01:51:00;;;;;;;9.88;5.63;;;563.50;2022.40;;;;;;5129560;27;20055;-76
2021/08/13 01:53:28;;;;;;;13.18;6.03;;;563.40;2048.00;;;;;;5125947;27;20174;-75
2021/08/13 01:55:55;;;;;;;12.52;6.45;;;563.40;2048.00;;;;;;5111784;27;20080;-80
2021/08/13 01:58:22;;;;;;;12.93;6.10;;;563.30;2073.60;;;;;;5131478;27;20038;-80
2021/08/13 02:00:51;;;;;;;12.50;6.47;;;563.20;2073.60;;;;;;5130833;27;20031;-79
2021/08/13 02:03:17;;;;;;;16.25;6.80;;;563.20;2048.00;;;;;;5132812;27;20103;-81
2021/08/13 02:05:45;;;;;;;9.98;6.68;;;563.20;2048.00;;;;;;5126244;27;20102;-79
2021/08/13 02:08:12;;;;;;;11.77;5.88;;;563.20;2048.00;;;;;;5132561;27;20023;-78
2021/08/13 02:10:42;;;;;;;15.13;5.95;;;563.20;2048.00;;;;;;5134324;27;20023;-80
2021/08/13 02:13:09;;;;;;;13.20;5.70;;;563.20;2048.00;;;;;;5134129;27;20061;-81
2021/08/13 02:15:38;;;;;;;13.82;6.80;;;563.20;2048.00;;;;;;5134565;27;20099;-81
2021/08/13 02:18:25;;;;;;;13.73;6.55;;;538.50;2022.40;;;;;;5133918;27;20031;-81
2021/08/13 02:20:55;;;;;;;14.07;6.68;;;538.50;2022.40;;;;;;5132678;27;20015;-81
2021/08/13 02:23:22;;;;;;;15.48;6.13;;;538.50;2022.40;;;;;;5136894;27;20540;-79
2021/08/13 02:25:48;;;;;;;12.32;6.65;;;538.50;2022.40;;;;;;5134574;27;20031;-81
2021/08/13 02:28:14;;;;;;;14.05;6.85;;;538.50;2022.40;;;;;;5115786;27;20030;-80
2021/08/13 02:30:40;;;;;;;12.88;5.88;;;538.50;2022.40;;;;;;5116467;27;20050;-81
2021/08/13 02:33:06;;;;;;;14.15;6.80;;;538.30;2022.40;;;;;;5133691;27;20103;-81
2021/08/13 02:35:32;;;;;;;14.50;6.18;;;538.50;2022.40;;;;;;5134196;27;20023;-82
2021/08/13 02:38:03;;;;;;;20.15;6.82;;;538.50;1996.80;;;;;;5134510;27;20033;-80
2021/08/13 02:40:31;;;;;;;11.38;6.53;;;538.50;1996.80;;;;;;5133163;27;20015;-80
2021/08/13 02:43:23;;;;;;;13.38;6.65;;;538.50;1996.80;;;;;;5134376;27;20015;-80
2021/08/13 02:45:51;;;;;;;17.60;6.63;;;563.20;1996.80;;;;;;5126527;27;20050;-81
2021/08/13 02:48:18;;;;;;;27.23;7.60;;;563.20;1996.80;;;;;;5134607;27;20099;-80
2021/08/13 02:50:46;;;;;;;15.77;7.07;;;563.20;1996.80;;;;;;5134431;27;20019;-76
2021/08/13 02:53:20;;;;;;;20.40;7.05;;;538.50;1996.80;;;;;;5134281;27;20011;-79
2021/08/13 02:56:02;;;;;;;10.52;6.30;;;538.50;1996.80;;;;;;5132087;27;20102;-81
2021/08/13 02:58:53;;;;;;;14.10;7.68;;;538.20;2022.40;;;;;;5132004;27;20022;-82
2021/08/13 03:01:23;;;;;;;17.33;7.72;;;538.10;2022.40;;;;;;5114564;27;20480;-80
2021/08/13 03:03:51;;;;;;;16.95;7.13;;;538.00;2022.40;;;;;;5132274;27;20014;-85
2021/08/13 03:06:19;;;;;;;12.43;6.70;;;538.00;2048.00;;;;;;5116826;27;20510;-84
2021/08/13 03:08:50;;;;;;;24.92;8.90;;;538.00;2048.00;;;;;;5134542;27;20027;-81
2021/08/13 03:11:17;;;;;;;16.80;7.13;;;538.00;2048.00;;;;;;5134560;27;20015;-79
2021/08/13 03:13:44;;;;;;;12.13;6.40;;;538.00;2048.00;;;;;;5134208;27;20019;-80
2021/08/13 03:16:13;;;;;;;19.95;7.78;;;537.90;2073.60;;;;;;5134318;27;20042;-81
2021/08/13 03:18:40;;;;;;;16.77;5.90;;;537.90;2073.60;;;;;;5134300;27;20026;-81
2021/08/13 03:21:08;;;;;;;9.98;6.72;;;538.00;2073.60;;;;;;5128376;27;20023;-76
2021/08/13 03:23:33;;;;;;;18.00;6.90;;;538.00;2073.60;;;;;;5133602;27;20027;-80
2021/08/13 03:26:00;;;;;;;10.27;6.97;;;537.90;2073.60;;;;;;5115617;27;20035;-80
2021/08/13 03:28:26;;;;;;;17.73;7.05;;;537.80;2099.20;;;;;;5134294;27;20090;-78
2021/08/13 03:30:51;;;;;;;10.77;6.97;;;537.60;2124.80;;;;;;5134302;27;20511;-79
2021/08/13 03:33:17;;;;;;;11.50;6.82;;;512.90;2099.20;;;;;;5115692;27;20106;-76
2021/08/13 03:35:44;;;;;;;16.38;7.45;;;537.70;2099.20;;;;;;5133699;27;20024;-79
2021/08/13 03:38:11;;;;;;;22.52;7.53;;;537.80;2099.20;;;;;;5133763;27;20023;-79
2021/08/13 03:40:37;;;;;;;17.83;7.28;;;537.80;2099.20;;;;;;5133824;27;20106;-76
2021/08/13 03:43:03;;;;;;;17.55;7.57;;;537.90;2099.20;;;;;;5133513;27;20114;-79
2021/08/13 03:45:30;;;;;;;16.13;6.13;;;537.90;2099.20;;;;;;5133617;27;20029;-76
2021/08/13 03:47:55;;;;;;;17.73;8.48;;;537.80;2099.20;;;;;;5133808;27;20059;-79
2021/08/13 03:50:21;;;;;;;16.05;7.88;;;537.90;2099.20;;;;;;5115186;28;20026;-80
2021/08/13 03:52:47;;;;;;;14.45;7.80;;;537.90;2099.20;;;;;;5131132;27;20027;-80
2021/08/13 03:55:13;;;;;;;17.52;7.20;;;537.90;2099.20;;;;;;5135293;27;20069;-80
2021/08/13 03:57:40;;;;;;;14.63;6.88;;;537.90;2099.20;;;;;;5133745;28;20023;-81
2021/08/13 04:00:07;;;;;;;21.17;7.43;;;538.00;2073.60;;;;;;5133549;28;20110;-77
2021/08/13 04:02:33;;;;;;;17.40;7.45;;;538.00;2099.20;;;;;;5133479;28;20023;-80
2021/08/13 04:04:58;;;;;;;17.63;7.68;;;538.20;2073.60;;;;;;5133467;28;20079;-80
2021/08/13 04:07:24;;;;;;;17.45;7.82;;;538.50;2048.00;;;;;;5131939;28;20034;-75
2021/08/13 04:09:50;;;;;;;19.77;8.20;;;563.20;2048.00;;;;;;5133018;28;20042;-79
2021/08/13 04:12:15;;;;;;;19.70;7.38;;;563.40;2048.00;;;;;;5133648;28;20084;-81
2021/08/13 04:14:41;;;;;;;17.65;7.93;;;563.40;2048.00;;;;;;5134356;28;20041;-79
2021/08/13 04:17:07;;;;;;;18.67;7.57;;;563.30;2048.00;;;;;;5133714;28;20015;-83
2021/08/13 04:19:33;;;;;;;20.65;7.65;;;563.20;2048.00;;;;;;5133582;28;20026;-76
2021/08/13 04:21:58;;;;;;;14.73;6.97;;;563.20;2073.60;;;;;;5133198;28;20427;-79
2021/08/13 04:24:24;;;;;;;12.55;7.15;;;538.50;2048.00;;;;;;5117856;28;20043;-80
2021/08/13 04:26:50;;;;;;;17.02;7.47;;;538.40;2073.60;;;;;;5134027;27;20368;-81
2021/08/13 04:29:15;;;;;;;20.70;7.50;;;538.30;2099.20;;;;;;5137287;27;20019;-79
2021/08/13 04:31:41;;;;;;;16.17;7.70;;;538.30;2099.20;;;;;;5119252;27;20024;-82
2021/08/13 04:34:07;;;;;;;15.75;8.68;;;538.50;2048.00;;;;;;5137463;27;20043;-82
2021/08/13 04:36:33;;;;;;;16.00;7.55;;;538.30;2073.60;;;;;;5137420;27;20023;-77
2021/08/13 04:38:58;;;;;;;13.18;6.95;;;538.30;2073.60;;;;;;5137959;27;20012;-80
2021/08/13 04:41:24;;;;;;;29.85;8.15;;;538.30;2073.60;;;;;;5138196;27;20035;-81
2021/08/13 04:43:50;;;;;;;22.63;8.35;;;538.40;2073.60;;;;;;5139558;27;20102;-81
2021/08/13 04:46:15;;;;;;;20.02;7.90;;;563.20;2099.20;;;;;;5138252;27;20031;-78
2021/08/13 04:48:41;;;;;;;12.68;7.28;;;563.40;2073.60;;;;;;5136977;27;20030;-79
2021/08/13 04:51:07;;;;;;;17.13;7.65;;;563.50;2048.00;;;;;;5137785;27;20144;-76
2021/08/13 04:53:33;;;;;;;16.92;7.45;;;563.70;2022.40;;;;;;5137511;27;20125;-83
2021/08/13 04:55:58;;;;;;;16.73;7.00;;;563.70;2022.40;;;;;;5136639;27;20019;-75
2021/08/13 04:58:24;;;;;;;14.57;6.90;;;563.80;2022.40;;;;;;5136924;27;20027;-77
2021/08/13 05:00:50;;;;;;;11.73;6.68;;;564.00;2022.40;;;;;;5136232;27;20117;-75
2021/08/13 05:03:16;;;;;;;13.05;7.55;;;564.00;2022.40;;;;;;5136264;27;20023;-76
2021/08/13 05:05:42;;;;;;;16.02;8.43;;;564.10;2048.00;;;;;;5136302;27;20031;-75
2021/08/13 05:08:08;;;;;;;12.60;7.38;;;564.10;2022.40;;;;;;5136403;27;20038;-78
2021/08/13 05:10:34;;;;;;;17.27;8.95;;;564.10;2048.00;;;;;;5136052;27;20111;-79
2021/08/13 05:12:59;;;;;;;13.90;7.78;;;564.10;2073.60;;;;;;5135912;27;20018;-77
2021/08/13 05:15:25;;;;;;;19.08;7.03;;;564.10;2073.60;;;;;;5135483;27;20130;-75
2021/08/13 05:17:51;;;;;;;15.30;7.00;;;564.00;2099.20;;;;;;5135767;27;20030;-78
2021/08/13 05:20:17;;;;;;;11.77;6.90;;;564.00;2073.60;;;;;;5136022;27;20030;-74
2021/08/13 05:22:43;;;;;;;14.27;7.20;;;564.10;2073.60;;;;;;5135866;27;20031;-78
2021/08/13 05:25:11;;;;;;;12.88;7.20;;;564.10;2048.00;;;;;;5120385;27;20061;-78
2021/08/13 05:27:37;;;;;;;12.35;7.57;;;588.80;2073.60;;;;;;5115470;28;20047;-77
2021/08/13 05:30:04;;;;;;;13.60;6.40;;;589.00;2022.40;;;;;;5115578;28;20460;-80
2021/08/13 05:32:30;;;;;;;16.33;6.63;;;589.10;2022.40;;;;;;5115467;28;20011;-81
2021/08/13 05:34:56;;;;;;;9.50;5.70;;;589.20;2048.00;;;;;;5115948;28;20051;-79
2021/08/13 05:37:22;;;;;;;10.98;6.18;;;589.40;2022.40;;;;;;5116059;28;20019;-79
2021/08/13 05:39:48;;;;;;;12.27;6.43;;;589.50;1996.80;;;;;;5114945;28;20125;-79
2021/08/13 05:42:13;;;;;;;10.80;5.97;;;589.70;1971.20;;;;;;5096559;28;20048;-75
2021/08/13 05:44:39;;;;;;;15.27;6.03;;;614.40;1971.20;;;;;;5115960;28;20020;-81
2021/08/13 05:47:06;;;;;;;8.98;5.75;;;614.40;1945.60;;;;;;5116055;28;20027;-81
2021/08/13 05:49:31;;;;;;;9.75;5.72;;;614.70;1920.00;;;;;;5116125;28;20024;-83
2021/08/13 05:51:58;;;;;;;13.18;6.50;;;614.50;1945.60;;;;;;5115717;28;20026;-77
2021/08/13 05:54:32;;;;;;;13.98;6.15;;;614.50;1971.20;;;;;;5124824;27;20034;-80
2021/08/13 05:56:58;;;;;;;10.27;5.30;;;614.80;1945.60;;;;;;5109709;27;20380;-82
2021/08/13 05:59:24;;;;;;;15.25;5.80;;;614.80;1920.00;;;;;;5114970;28;20165;-80
2021/08/13 06:01:50;;;;;;;9.15;5.47;;;614.90;1894.40;;;;;;5115368;28;20035;-80
2021/08/13 06:04:15;;;;;;;12.77;6.20;;;614.90;1843.20;;;;;;5115208;28;20412;-80
2021/08/13 06:06:43;;;;;;;9.63;6.20;;;615.10;1843.20;;;;;;5115418;28;20097;-77
2021/08/13 06:09:09;;;;;;;8.48;4.85;;;615.20;1868.80;;;;;;5115520;28;20538;-79
2021/08/13 06:11:35;;;;;;;9.20;5.28;;;615.30;1817.60;;;;;;5115309;28;20059;-84
2021/08/13 06:14:01;;;;;;;9.45;5.95;;;615.30;1817.60;;;;;;5115530;28;20026;-82
2021/08/13 06:16:26;;;;;;;11.35;5.28;;;640.10;1843.20;;;;;;5115759;28;20031;-82
2021/08/13 06:18:52;;;;;;;9.77;4.88;;;640.10;1766.40;;;;;;5115478;28;20507;-83
2021/08/13 06:21:18;;;;;;;7.53;5.35;;;640.20;1766.40;;;;;;5114483;28;20028;-77
2021/08/13 06:23:44;;;;;;;10.75;5.57;;;640.40;1740.80;;;;;;5108929;27;20069;-76
2021/08/13 06:26:10;;;;;;;9.52;6.63;;;640.50;1715.20;;;;;;5135983;27;20023;-85
2021/08/13 06:28:36;;;;;;;13.13;5.95;;;640.70;1715.20;;;;;;5136208;27;20025;-82
2021/08/13 06:31:02;;;;;;;10.23;5.20;;;640.90;1715.20;;;;;;5135908;27;20023;-85
2021/08/13 06:33:28;;;;;;;13.95;5.82;;;640.90;1766.40;;;;;;5135910;27;20524;-83
2021/08/13 06:35:54;;;;;;;9.93;4.88;;;665.60;1740.80;;;;;;5117560;27;20019;-84
2021/08/13 06:38:19;;;;;;;9.93;4.88;;;665.60;1715.20;;;;;;5135666;27;20484;-85
2021/08/13 06:40:45;;;;;;;8.98;5.15;;;665.70;1689.60;;;;;;5132627;27;20070;-76
2021/08/13 06:43:11;;;;;;;14.43;5.40;;;665.90;1689.60;;;;;;5119400;27;20506;-81
2021/08/13 06:45:36;;;;;;;14.35;6.03;;;666.00;1664.00;;;;;;5133209;27;20026;-81
2021/08/13 06:48:02;;;;;;;11.43;5.88;;;666.20;1638.40;;;;;;5129255;27;20102;-81
2021/08/13 06:50:28;;;;;;;16.73;7.28;;;666.30;1638.40;;;;;;5128372;27;20044;-82
2021/08/13 06:52:54;;;;;;;12.63;6.07;;;666.30;1638.40;;;;;;5125130;27;20035;-79
2021/08/13 06:55:20;;;;;;;14.32;6.57;;;666.50;1612.80;;;;;;5133299;27;20447;-76
2021/08/13 06:57:46;;;;;;;13.57;6.53;;;691.30;1587.20;;;;;;5135199;27;20023;-79
2021/08/13 07:00:13;;;;;;;12.95;6.20;;;691.40;1587.20;;;;;;5135293;27;20072;-83
2021/08/13 07:02:39;;;;;;;12.80;6.57;;;691.60;1587.20;;;;;;5135131;27;20027;-79
2021/08/13 07:05:06;;;;;;;18.40;6.55;;;691.70;1587.20;;;;;;5134837;27;20022;-74
2021/08/13 07:07:32;;;;;;;12.02;6.32;;;691.80;1587.20;;;;;;5134791;27;20026;-77
2021/08/13 07:09:58;;;;;;;15.82;6.55;;;691.90;1536.00;;;;;;5134583;27;20015;-77
2021/08/13 07:12:24;;;;;;;14.38;7.35;;;692.10;1510.40;;;;;;5134422;27;20019;-76
2021/08/13 07:14:50;;;;;;;16.17;8.00;;;716.80;1510.40;;;;;;5134616;27;20038;-79
2021/08/13 07:17:16;;;;;;;13.82;7.72;;;716.90;1484.80;;;;;;5134454;27;20039;-76
2021/08/13 07:19:41;;;;;;;13.70;7.32;;;717.00;1459.20;;;;;;5134503;27;20019;-79
2021/08/13 07:22:07;;;;;;;12.95;8.00;;;717.00;1459.20;;;;;;5134336;27;20031;-82
2021/08/13 07:24:33;;;;;;;15.05;6.45;;;717.20;1433.60;;;;;;5145340;27;20069;-83
2021/08/13 07:26:59;;;;;;;16.48;7.10;;;717.30;1433.60;;;;;;5146779;27;20411;-78
2021/08/13 07:29:24;;;;;;;13.63;6.53;;;717.40;1408.00;;;;;;5135005;27;20027;-74
2021/08/13 07:31:53;;;;;;;13.32;5.43;;;717.50;1408.00;;;;;;5116786;27;20035;-81
2021/08/13 07:34:19;;;;;;;10.32;4.93;;;717.60;1408.00;;;;;;5135007;27;20015;-74
2021/08/13 07:36:45;;;;;;;5.60;3.85;;;717.60;1356.80;;;;;;5134765;27;20026;-84
2021/08/13 07:39:10;;;;;;;5.90;3.78;;;717.70;1382.40;;;;;;5134461;27;20035;-79
2021/08/13 07:41:36;;;;;;;9.32;4.00;;;742.40;1356.80;;;;;;5115775;28;20042;-83
2021/08/13 07:44:02;;;;;;;7.60;4.47;;;742.50;1305.60;;;;;;5127891;27;20033;-80
2021/08/13 07:46:28;;;;;;;5.50;3.63;;;742.60;1305.60;;;;;;5133844;27;20023;-77
2021/08/13 07:48:54;;;;;;;8.82;4.85;;;742.50;1305.60;;;;;;5131138;27;20023;-81
2021/08/13 07:51:20;;;;;;;6.00;4.00;;;742.50;1356.80;;;;;;5134233;27;20029;-85
2021/08/13 07:53:46;;;;;;;12.50;5.00;;;742.70;1356.80;;;;;;5133758;27;20031;-81
2021/08/13 07:56:11;;;;;;;7.40;4.30;;;742.80;1305.60;;;;;;5133918;28;20385;-82
2021/08/13 07:58:38;;;;;;;8.77;4.85;;;742.80;1331.20;;;;;;5134757;28;20083;-79
2021/08/13 08:01:03;;;;;;;9.25;4.65;;;742.90;1382.40;;;;;;5130594;28;20034;-76
2021/08/13 08:03:29;;;;;;;7.82;4.25;;;743.10;1356.80;;;;;;5126190;27;20023;-85
2021/08/13 08:05:55;;;;;;;10.85;3.83;;;742.90;1331.20;;;;;;5138322;27;20084;-81
2021/08/13 08:08:21;;;;;;;7.60;4.70;;;743.00;1331.20;;;;;;5138352;27;20050;-75
2021/08/13 08:10:47;;;;;;;8.52;4.55;;;743.10;1280.00;;;;;;5138066;27;20107;-75
2021/08/13 08:13:17;;;;;;;9.02;4.60;;;743.30;1305.60;;;;;;5137705;27;20034;-75
2021/08/13 08:15:43;;;;;;;9.98;4.43;;;743.10;1280.00;;;;;;5137710;27;20107;-75
2021/08/13 08:18:09;;;;;;;8.30;4.95;;;743.10;1305.60;;;;;;5113003;27;20035;-80
2021/08/13 08:20:36;;;;;;;7.07;4.07;;;743.00;1331.20;;;;;;5138096;27;20094;-85
2021/08/13 08:23:02;;;;;;;6.80;5.25;;;743.30;1280.00;;;;;;5137358;27;20023;-80
2021/08/13 08:25:29;;;;;;;7.00;4.47;;;768.10;1331.20;;;;;;5136413;27;20508;-78
2021/08/13 08:27:55;;;;;;;11.35;4.88;;;768.40;1331.20;;;;;;5136299;27;20027;-77
2021/08/13 08:30:21;;;;;;;11.00;6.93;;;768.40;1280.00;;;;;;5136643;27;20007;-78
2021/08/13 08:32:48;;;;;;;12.43;7.05;;;768.20;1280.00;;;;;;5135756;27;20075;-78
2021/08/13 08:35:14;;;;;;;5.93;4.40;;;768.20;1280.00;;;;;;5136172;27;20612;-82
2021/08/13 08:37:54;;;;;;;13.02;5.22;;;768.10;1280.00;;;;;;5136318;27;20031;-81
2021/08/13 08:40:27;;;;;;;8.65;5.18;;;768.20;1280.00;;;;;;5136597;27;20098;-81
2021/08/13 08:43:00;;;;;;;6.50;4.30;;;768.20;1280.00;;;;;;5131345;27;20079;-83
2021/08/13 08:45:28;;;;;;;6.18;4.47;;;768.10;1280.00;;;;;;5119715;27;20388;-84
2021/08/13 08:47:58;;;;;;;9.35;3.95;;;768.10;1280.00;;;;;;5139937;27;20038;-77
2021/08/13 08:50:25;;;;;;;6.90;4.68;;;768.20;1305.60;;;;;;5144477;27;20044;-75
2021/08/13 08:52:52;;;;;;;8.43;4.93;;;768.40;1280.00;;;;;;5147395;27;20056;-83
2021/08/13 08:55:18;;;;;;;11.65;5.18;;;768.60;1254.40;;;;;;5140600;27;20093;-79
2021/08/13 08:57:48;;;;;;;10.35;4.45;;;768.60;1254.40;;;;;;5144376;27;20100;-81
2021/08/13 09:00:18;;;;;;;7.32;4.45;;;768.60;1254.40;;;;;;5134910;27;20384;-84
2021/08/13 09:02:44;;;;;;;7.53;3.80;;;768.90;1228.80;;;;;;5138801;27;20042;-83
2021/08/13 09:05:13;;;;;;;7.72;4.55;;;768.50;1254.40;;;;;;5137326;27;20020;-77
2021/08/13 09:07:40;;;;;;;7.30;4.13;;;768.60;1228.80;;;;;;5137638;27;20038;-85
2021/08/13 09:10:08;;;;;;;7.57;3.75;;;768.60;1203.20;;;;;;5137451;27;20023;-80
2021/08/13 09:12:34;;;;;;;8.30;5.07;;;768.70;1177.60;;;;;;5137629;27;20178;-77
2021/08/13 09:15:00;;;;;;;7.93;4.10;;;768.90;1254.40;;;;;;5137114;27;20023;-77
2021/08/13 09:17:33;;;;;;;9.00;5.07;;;768.90;1203.20;;;;;;5137167;27;20049;-80
2021/08/13 09:19:59;;;;;;;8.57;4.78;;;768.90;1228.80;;;;;;5136570;27;20034;-83
2021/08/13 09:22:25;;;;;;;8.60;4.47;;;793.70;1280.00;;;;;;5136242;27;20038;-79
2021/08/13 09:24:54;;;;;;;7.90;4.22;;;794.00;1280.00;;;;;;5135709;27;20043;-78
2021/08/13 09:27:22;;;;;;;7.32;3.97;;;794.00;1228.80;;;;;;5133930;27;20503;-79
2021/08/13 09:30:13;;;;;;;8.55;4.90;;;794.00;1177.60;;;;;;5136361;27;20047;-78
2021/08/13 09:32:41;;;;;;;6.95;4.82;;;794.10;1228.80;;;;;;5133875;27;20118;-82
2021/08/13 09:35:07;;;;;;;5.72;4.38;;;794.00;1203.20;;;;;;5135967;27;20060;-81
2021/08/13 09:37:38;;;;;;;6.30;4.07;;;794.00;1203.20;;;;;;5135912;27;20031;-81
2021/08/13 09:40:05;;;;;;;6.65;4.30;;;794.20;1152.00;;;;;;5135905;27;20023;-81
2021/08/13 09:42:36;;;;;;;7.65;4.22;;;794.20;1228.80;;;;;;5135967;27;20161;-80
2021/08/13 09:45:11;;;;;;;8.20;4.88;;;794.50;1177.60;;;;;;5135633;27;20069;-80
2021/08/13 09:47:44;;;;;;;;;;;794.40;1203.20;;;;;;5136150;27;20030;-85
2021/08/13 09:50:12;;;;;;;9.25;4.80;;;819.20;1177.60;;;;;;5136249;27;19926;-82
2021/08/13 09:52:39;;;;;;;7.63;4.10;;;819.20;1177.60;;;;;;5136384;27;20023;-78
2021/08/13 09:55:15;;;;;;;6.35;4.28;;;819.30;1177.60;;;;;;5137674;27;20043;-81
2021/08/13 09:57:45;;;;;;;10.48;5.80;;;819.70;1203.20;;;;;;5130649;27;20029;-83
2021/08/13 10:00:13;;;;;;;8.98;5.88;;;844.80;1100.80;;;;;;5131159;27;20023;-81
2021/08/13 10:02:40;;;;;;;7.63;4.97;;;845.20;1100.80;;;;;;5128647;27;20035;-76
2021/08/13 10:05:20;;;;;;;9.95;4.32;;;870.60;1075.20;;;;;;5134414;27;20380;-83
2021/08/13 10:08:03;;;;;;;12.23;4.65;;;871.00;1024.00;;;;;;5138346;27;20502;-85
2021/08/13 10:10:30;;;;;;;16.95;11.52;;;896.00;1024.00;;;;;;5139107;27;20023;-85
2021/08/13 10:13:00;;;;;;;12.05;6.85;;;871.30;1024.00;;;;;;5137335;27;20035;-85
2021/08/13 10:15:35;;;;;;;9.45;6.32;;;896.20;972.80;;;;;;5136807;27;20023;-87
2021/08/13 10:18:05;;;;;;;7.40;4.80;;;896.50;972.80;;;;;;5136590;27;20028;-83
2021/08/13 10:20:34;;;;;;;7.82;4.05;;;896.60;972.80;;;;;;5136209;27;20023;-88
2021/08/13 10:23:00;;;;;;;8.15;4.03;;;896.70;972.80;;;;;;5135903;27;20032;-87
2021/08/13 10:25:26;;;;;;;7.20;4.90;;;896.90;947.20;;;;;;5153967;27;20039;-83
2021/08/13 10:27:55;;;;;;;12.13;6.00;;;896.60;947.20;;;;;;5156694;27;20101;-85
2021/08/13 10:30:23;;;;;;;6.40;4.05;;;896.00;972.80;;;;;;5156581;27;20064;-82
2021/08/13 10:32:56;;;;;;;9.70;4.40;;;871.30;972.80;;;;;;5156427;27;20015;-85
2021/08/13 10:35:46;;;;;;;7.60;4.22;;;896.60;998.40;;;;;;5156185;27;20380;-78
2021/08/13 10:38:13;;;;;;;8.23;4.40;;;896.80;947.20;;;;;;5155705;27;20046;-83
2021/08/13 10:40:41;;;;;;;9.70;4.63;;;896.80;972.80;;;;;;5155794;27;20029;-77
2021/08/13 10:43:08;;;;;;;9.15;4.70;;;896.80;972.80;;;;;;5151352;27;20033;-78
2021/08/13 10:45:36;;;;;;;9.90;5.00;;;922.00;947.20;;;;;;5134961;27;20477;-78
2021/08/13 10:48:20;;;;;;;9.48;4.55;;;922.00;947.20;;;;;;5135105;27;20112;-76
2021/08/13 10:50:48;;;;;;;9.50;5.35;;;921.80;972.80;;;;;;5133984;27;20030;-80
2021/08/13 10:53:43;;;;;;;6.22;4.43;;;896.80;947.20;;;;;;5134482;27;20510;-80
2021/08/13 10:56:09;;;;;;;6.78;4.30;;;896.70;947.20;;;;;;5051761;28;20227;-80
2021/08/13 10:58:41;;;;;;;7.43;4.68;;;921.90;972.80;;;;;;5051541;28;20052;-79
2021/08/13 11:01:20;;;;;;;6.50;4.38;;;921.80;972.80;;;;;;5051341;28;20603;-83
2021/08/13 11:03:55;;;;;;;7.28;4.30;;;947.20;947.20;;;;;;5051453;28;20604;-76
2021/08/13 11:06:36;;;;;;;8.50;4.25;;;922.50;921.60;;;;;;5051440;28;20092;-79
2021/08/13 11:09:06;;;;;;;8.98;5.28;;;922.00;947.20;;;;;;5051643;28;20025;-81
2021/08/13 11:11:53;;;;;;;7.03;4.55;;;921.90;921.60;;;;;;5051827;28;20027;-85
2021/08/13 11:14:33;;;;;;;6.18;4.45;;;922.00;972.80;;;;;;5051071;28;20449;-79
2021/08/13 11:17:00;;;;;;;5.65;4.30;;;921.90;972.80;;;;;;5051226;28;20063;-77
2021/08/13 11:19:26;;;;;;;7.47;4.43;;;922.30;947.20;;;;;;5051622;28;20043;-82
2021/08/13 11:21:58;;;;;;;7.13;4.15;;;947.20;921.60;;;;;;5051718;28;20036;-76
2021/08/13 11:24:26;;;;;;;7.43;4.38;;;922.00;947.20;;;;;;5048318;28;20048;-81
2021/08/13 11:26:58;;;;;;;7.88;4.30;;;922.50;921.60;;;;;;5034683;28;20431;-86
2021/08/13 11:29:30;;;;;;;9.88;4.70;;;922.50;896.00;;;;;;5051895;28;20096;-84
2021/08/13 11:31:56;;;;;;;10.85;4.20;;;922.50;896.00;;;;;;5071639;27;20031;-80
2021/08/13 11:34:41;;;;;;;6.88;4.03;;;947.40;921.60;;;;;;5152852;27;20019;-80
2021/08/13 11:37:06;;;;;;;6.18;4.15;;;947.60;896.00;;;;;;5155986;27;20030;-77
2021/08/13 11:39:39;;;;;;;6.78;4.50;;;922.40;921.60;;;;;;5154067;27;20071;-81
2021/08/13 11:42:07;;;;;;;6.85;4.03;;;922.00;896.00;;;;;;5112525;28;20114;-77
2021/08/13 11:44:34;;;;;;;5.78;3.85;;;922.40;896.00;;;;;;5125191;27;20023;-78
2021/08/13 11:47:02;;;;;;;7.80;3.90;;;922.00;896.00;;;;;;5124568;27;20051;-81
2021/08/13 11:49:28;;;;;;;7.15;4.10;;;922.10;896.00;;;;;;5125683;27;20020;-75
2021/08/13 11:52:13;;;;;;;5.75;4.53;;;922.00;921.60;;;;;;5130133;27;20027;-86
2021/08/13 11:54:44;;;;;;;;;;;896.90;921.60;;;;;;5129560;27;20037;-76
2021/08/13 11:57:13;;;;;;;7.38;4.68;;;921.80;921.60;;;;;;5138470;27;19945;-81
2021/08/13 11:59:39;;;;;;;10.38;5.60;;;921.90;921.60;;;;;;5148000;27;20027;-86
2021/08/13 12:02:05;;;;;;;8.15;4.75;;;922.10;921.60;;;;;;5136476;27;20031;-80
2021/08/13 12:04:31;;;;;;;8.32;4.95;;;921.80;947.20;;;;;;5128348;27;20016;-82
2021/08/13 12:07:13;;;;;;;6.60;5.05;;;922.30;921.60;;;;;;5135495;27;20083;-79
2021/08/13 12:09:41;;;;;;;10.10;5.38;;;922.10;921.60;;;;;;5134546;27;20031;-76
2021/08/13 12:12:09;;;;;;;15.32;4.95;;;922.30;921.60;;;;;;5134624;28;20030;-84
2021/08/13 12:14:37;;;;;;;6.85;4.53;;;922.30;921.60;;;;;;5133424;28;20030;-83
2021/08/13 12:17:03;;;;;;;7.25;4.55;;;922.30;921.60;;;;;;5132565;28;20349;-78
2021/08/13 12:19:30;;;;;;;5.95;3.60;;;922.40;896.00;;;;;;5132430;28;20034;-81